Terminal Aerodrome Forecast
Issued by NWS

Home | Current Version | Previous Version | Text Only | Print | Product List | Glossary On
Versions: 1 2 3 4 5 6 7 8 9 10 11 12 13 14
000
FTUS41 KPBZ 301000 AAA
TAFMGW
TAF AMD
KMGW 301022Z 3010/0106 00000KT 5SM BR SCT050
     FM301200 23004KT P6SM SCT100
     FM302000 26006KT P6SM -SHRA BKN050
     FM010100 VRB03KT P6SM BKN040=

USA.gov is the U.S. government's official web portal to all federal, state and local government web resources and services.